Club 10 Mile Time Trial - 05 May 2011

Printer-friendly versionPrinter-friendly version
Event Date: 
Thu 05 May
Start Time: 
19:00
Event type: 
Club
Distance: 
10 Mile Time Trial
Course: 
H10/10
Enter by: 
On the line
Description: 

Club 10 Mile Time Trial - 05 May 2011

Weather: 
Fair, 15 °C, SE 6 mph, 1018 hPa, Relative Humidity 51%
Winner: 
Neil Cooper
Winning Time: 
23:03

No handicap points to be awarded from tonights event due to temporary traffic lights just past Maidens Green.    We hope riders were not to badly hindered by the lights.







Place No Name club Time mph kph
1 32 Neil Cooper AW Cycles 23:07 25.96 41.53
2 39 Sharkie Jaggard TVT 23:20 25.71 41.14
3 7 Sam Hilton MDCC 23:31 25.51 40.82
4 18 Simon Greenland MDCC 23:57 25.05 40.08
5 15 Robin Smith MDCC 24:05 24.91 39.86
6 35 Paul Stonell Thames Velo 24:14 24.76 39.61
7 19 Andrew Payne MDCC 24:18 24.69 39.51
8= 38 Mickael Metayer Thames Velo 24:46 24.23 38.76
8= 47 Emma Grant VIORED 24:46 24.23 38.76
10 29 Simeon Pollard MDCC 24:52 24.13 38.61
11 23 Danuta Tinn MDCC 25:05 23.92 38.27
12 10 Mark Dewey MDCC 25:24 23.62 37.80
13 28 Andy Water CTI 25:35 23.45 37.52
14 13 George Eyles MDCC 25:47 23.27 37.23
15 37 Tina Reid Sandy Wallace Cycles 25:48 23.26 37.21
16 42 Simon Fox  TVT 25:52 23.20 37.11
17 11 Joe Broadhead MDCC 25:58 23.11 36.97
18 31 Paul Cooper Reading CC 26:13 22.89 36.62
19 14 Andy Crawhaw Evo Tri 26:21 22.77 36.43
20= 16 Mike Woods MDCC 26:29 22.66 36.25
20= 27 Paul Burton MDCC 26:29 22.66 36.25
22 20 Callum Robertson MDCC 26:36 22.56 36.09
23 34 Barry Hopkins TVT 26:44 22.44 35.91
24 25 Ralph Allen CTI 27:08 22.11 35.38
25 43 Jamie Rossiter   27:20 21.95 35.12
26 21 Nigel Shurben MDCC 27:27 21.86 34.97
27 6 Anna Long MDCC 27:47 21.60 34.55
28 17 Gary Pritchard MDCC 27:51 21.54 34.47
29 33 Richard Holliday Eton Tri 28:11 21.29 34.06
30 5 Gurpal Panesar MDCC 28:27 21.09 33.74
31 26 Chris Waters CTI 28:50 20.81 33.29
32 2 Les Gardner MDCC 29:25 20.40 32.63
33 36 David Blundell SWRC 29:38 20.25 32.40
34 41 Louise Bardsley MDCC 26:49 20.12 32.20
35 40 Amanda Crawshaw Evo Tri 29:51 20.10 32.16
36 9 Paul Weald TVT 29:56 20.04 32.07
37 1 Mark Brewer MDCC 30:01 19.99 31.98
38 3 Sarah Davies MDCC 30:15 19.83 31.74
39 12 Alex Perrior Evo Tri 31:13 19.22 30.75
40 22 Colette Callanan CTI 32:02 18.73 29.97
41 30 Nigel Webber CTI 34:20 17.48 27.96
42 4 Vince Dewey MDCC 34:48 17.24 27.59